sensor_id;sensor_type;location;lat;lon;timestamp;temperature;humidity
37050;DHT22;22958;51.232;6.826;2023-10-08T00:01:41;18.80;99.90
37050;DHT22;22958;51.232;6.826;2023-10-08T00:04:08;18.80;99.90
37050;DHT22;22958;51.232;6.826;2023-10-08T00:06:36;18.80;99.90
37050;DHT22;22958;51.232;6.826;2023-10-08T00:09:03;18.80;99.90
37050;DHT22;22958;51.232;6.826;2023-10-08T00:11:37;18.80;99.90
37050;DHT22;22958;51.232;6.826;2023-10-08T00:14:04;18.80;99.90
37050;DHT22;22958;51.232;6.826;2023-10-08T00:16:34;18.70;99.90
37050;DHT22;22958;51.232;6.826;2023-10-08T00:18:59;18.80;99.90
37050;DHT22;22958;51.232;6.826;2023-10-08T00:21:33;18.80;99.90
37050;DHT22;22958;51.232;6.826;2023-10-08T00:24:00;18.90;99.90
37050;DHT22;22958;51.232;6.826;2023-10-08T00:26:31;18.70;99.90
37050;DHT22;22958;51.232;6.826;2023-10-08T00:28:57;18.80;99.90
37050;DHT22;22958;51.232;6.826;2023-10-08T00:31:25;18.80;99.90
37050;DHT22;22958;51.232;6.826;2023-10-08T00:33:56;18.80;99.90
37050;DHT22;22958;51.232;6.826;2023-10-08T00:36:22;18.70;99.90
37050;DHT22;22958;51.232;6.826;2023-10-08T00:38:50;18.70;99.90
37050;DHT22;22958;51.232;6.826;2023-10-08T00:41:26;18.80;99.90
37050;DHT22;22958;51.232;6.826;2023-10-08T00:43:56;18.80;99.90
37050;DHT22;22958;51.232;6.826;2023-10-08T00:46:25;18.80;99.90
37050;DHT22;22958;51.232;6.826;2023-10-08T00:48:57;18.70;99.90
37050;DHT22;22958;51.232;6.826;2023-10-08T00:51:24;18.70;99.90
37050;DHT22;22958;51.232;6.826;2023-10-08T00:54:05;18.60;99.90
37050;DHT22;22958;51.232;6.826;2023-10-08T00:56:34;18.50;99.90
37050;DHT22;22958;51.232;6.826;2023-10-08T00:59:15;18.60;99.90
37050;DHT22;22958;51.232;6.826;2023-10-08T01:01:43;18.50;99.90
37050;DHT22;22958;51.232;6.826;2023-10-08T01:04:16;18.50;99.90
37050;DHT22;22958;51.232;6.826;2023-10-08T01:06:42;18.50;99.90
37050;DHT22;22958;51.232;6.826;2023-10-08T01:09:07;18.50;99.90
37050;DHT22;22958;51.232;6.826;2023-10-08T01:11:44;18.50;99.90
37050;DHT22;22958;51.232;6.826;2023-10-08T01:14:16;18.50;99.90
37050;DHT22;22958;51.232;6.826;2023-10-08T01:16:46;18.40;99.90
37050;DHT22;22958;51.232;6.826;2023-10-08T01:19:18;18.40;99.90
37050;DHT22;22958;51.232;6.826;2023-10-08T01:21:44;18.30;99.90
37050;DHT22;22958;51.232;6.826;2023-10-08T01:24:10;18.30;99.90
37050;DHT22;22958;51.232;6.826;2023-10-08T01:26:41;18.30;99.90
37050;DHT22;22958;51.232;6.826;2023-10-08T01:29:10;18.10;99.90
37050;DHT22;22958;51.232;6.826;2023-10-08T01:31:47;18.00;99.90
37050;DHT22;22958;51.232;6.826;2023-10-08T01:34:18;18.00;99.90
37050;DHT22;22958;51.232;6.826;2023-10-08T01:36:51;17.90;99.90
37050;DHT22;22958;51.232;6.826;2023-10-08T01:39:17;17.80;99.90
37050;DHT22;22958;51.232;6.826;2023-10-08T01:41:44;17.80;99.90
37050;DHT22;22958;51.232;6.826;2023-10-08T01:44:09;17.80;99.90
37050;DHT22;22958;51.232;6.826;2023-10-08T01:46:35;17.90;99.90
37050;DHT22;22958;51.232;6.826;2023-10-08T01:49:01;17.70;99.90
37050;DHT22;22958;51.232;6.826;2023-10-08T01:51:34;17.60;99.90
37050;DHT22;22958;51.232;6.826;2023-10-08T01:54:04;17.60;99.90
37050;DHT22;22958;51.232;6.826;2023-10-08T01:56:42;17.60;99.90
37050;DHT22;22958;51.232;6.826;2023-10-08T01:59:09;17.60;99.90
37050;DHT22;22958;51.232;6.826;2023-10-08T02:01:35;17.60;99.90
37050;DHT22;22958;51.232;6.826;2023-10-08T02:04:01;17.50;99.90
37050;DHT22;22958;51.232;6.826;2023-10-08T02:06:27;17.40;99.90
37050;DHT22;22958;51.232;6.826;2023-10-08T02:08:52;17.40;99.90
37050;DHT22;22958;51.232;6.826;2023-10-08T02:11:18;17.30;99.90
37050;DHT22;22958;51.232;6.826;2023-10-08T02:13:45;17.30;99.90
37050;DHT22;22958;51.232;6.826;2023-10-08T02:16:18;17.30;99.90
37050;DHT22;22958;51.232;6.826;2023-10-08T02:18:43;17.30;99.90
37050;DHT22;22958;51.232;6.826;2023-10-08T02:21:09;17.30;99.90
37050;DHT22;22958;51.232;6.826;2023-10-08T02:23:36;17.30;99.90
37050;DHT22;22958;51.232;6.826;2023-10-08T02:26:02;17.40;99.90
37050;DHT22;22958;51.232;6.826;2023-10-08T02:28:28;17.40;99.90
37050;DHT22;22958;51.232;6.826;2023-10-08T02:30:54;17.30;99.90
37050;DHT22;22958;51.232;6.826;2023-10-08T02:33:19;17.40;99.90
37050;DHT22;22958;51.232;6.826;2023-10-08T02:35:46;17.30;99.90
37050;DHT22;22958;51.232;6.826;2023-10-08T02:38:13;17.30;99.90
37050;DHT22;22958;51.232;6.826;2023-10-08T02:40:41;17.40;99.90
37050;DHT22;22958;51.232;6.826;2023-10-08T02:43:12;17.40;99.90
37050;DHT22;22958;51.232;6.826;2023-10-08T02:45:39;17.50;99.90
37050;DHT22;22958;51.232;6.826;2023-10-08T02:48:06;17.50;99.90
37050;DHT22;22958;51.232;6.826;2023-10-08T02:50:45;17.40;99.90
37050;DHT22;22958;51.232;6.826;2023-10-08T02:53:13;17.40;99.90
37050;DHT22;22958;51.232;6.826;2023-10-08T02:55:43;17.40;99.90
37050;DHT22;22958;51.232;6.826;2023-10-08T02:58:12;17.40;99.90
37050;DHT22;22958;51.232;6.826;2023-10-08T03:00:42;17.30;99.90
37050;DHT22;22958;51.232;6.826;2023-10-08T03:03:08;17.30;99.90
37050;DHT22;22958;51.232;6.826;2023-10-08T03:05:45;17.30;99.90
37050;DHT22;22958;51.232;6.826;2023-10-08T03:08:12;17.20;99.90
37050;DHT22;22958;51.232;6.826;2023-10-08T03:10:38;17.20;99.90
37050;DHT22;22958;51.232;6.826;2023-10-08T03:13:05;17.10;99.90
37050;DHT22;22958;51.232;6.826;2023-10-08T03:15:31;17.20;99.90
37050;DHT22;22958;51.232;6.826;2023-10-08T03:18:13;17.10;99.90
37050;DHT22;22958;51.232;6.826;2023-10-08T03:20:40;17.00;99.90
37050;DHT22;22958;51.232;6.826;2023-10-08T03:23:13;17.00;99.90
37050;DHT22;22958;51.232;6.826;2023-10-08T03:25:50;17.00;99.90
37050;DHT22;22958;51.232;6.826;2023-10-08T03:28:21;17.00;99.90
37050;DHT22;22958;51.232;6.826;2023-10-08T03:30:56;17.00;99.90
37050;DHT22;22958;51.232;6.826;2023-10-08T03:33:34;17.10;99.90
37050;DHT22;22958;51.232;6.826;2023-10-08T03:36:01;17.00;99.90
37050;DHT22;22958;51.232;6.826;2023-10-08T03:38:35;16.90;99.90
37050;DHT22;22958;51.232;6.826;2023-10-08T03:41:25;16.80;99.90
37050;DHT22;22958;51.232;6.826;2023-10-08T03:43:55;16.80;99.90
37050;DHT22;22958;51.232;6.826;2023-10-08T03:46:35;16.80;99.90
37050;DHT22;22958;51.232;6.826;2023-10-08T03:49:05;16.80;99.90
37050;DHT22;22958;51.232;6.826;2023-10-08T03:51:51;16.80;99.90
37050;DHT22;22958;51.232;6.826;2023-10-08T03:54:23;16.80;99.90
37050;DHT22;22958;51.232;6.826;2023-10-08T03:57:01;16.80;99.90
37050;DHT22;22958;51.232;6.826;2023-10-08T03:59:29;16.80;99.90
37050;DHT22;22958;51.232;6.826;2023-10-08T04:01:55;16.80;99.90
37050;DHT22;22958;51.232;6.826;2023-10-08T04:04:25;16.70;99.90
37050;DHT22;22958;51.232;6.826;2023-10-08T04:07:21;16.70;99.90
37050;DHT22;22958;51.232;6.826;2023-10-08T04:09:50;16.80;99.90
37050;DHT22;22958;51.232;6.826;2023-10-08T04:12:24;16.80;99.90
37050;DHT22;22958;51.232;6.826;2023-10-08T04:14:52;16.80;99.90
37050;DHT22;22958;51.232;6.826;2023-10-08T04:17:21;16.80;99.90
37050;DHT22;22958;51.232;6.826;2023-10-08T04:19:48;16.80;99.90
37050;DHT22;22958;51.232;6.826;2023-10-08T04:22:13;16.80;99.90
37050;DHT22;22958;51.232;6.826;2023-10-08T04:24:43;16.70;99.90
37050;DHT22;22958;51.232;6.826;2023-10-08T04:27:09;16.70;99.90
37050;DHT22;22958;51.232;6.826;2023-10-08T04:29:35;16.70;99.90
37050;DHT22;22958;51.232;6.826;2023-10-08T04:32:04;16.60;99.90
37050;DHT22;22958;51.232;6.826;2023-10-08T04:34:38;16.50;99.90
37050;DHT22;22958;51.232;6.826;2023-10-08T04:37:04;16.50;99.90
37050;DHT22;22958;51.232;6.826;2023-10-08T04:39:38;16.50;99.90
37050;DHT22;22958;51.232;6.826;2023-10-08T04:42:06;16.50;99.90
37050;DHT22;22958;51.232;6.826;2023-10-08T04:44:39;16.40;99.90
37050;DHT22;22958;51.232;6.826;2023-10-08T04:47:05;16.40;99.90
37050;DHT22;22958;51.232;6.826;2023-10-08T04:49:32;16.40;99.90
37050;DHT22;22958;51.232;6.826;2023-10-08T04:52:04;16.40;99.90
37050;DHT22;22958;51.232;6.826;2023-10-08T04:54:55;16.40;99.90
37050;DHT22;22958;51.232;6.826;2023-10-08T04:57:21;16.40;99.90
37050;DHT22;22958;51.232;6.826;2023-10-08T04:59:48;16.40;99.90
37050;DHT22;22958;51.232;6.826;2023-10-08T05:02:15;16.50;99.90
37050;DHT22;22958;51.232;6.826;2023-10-08T05:04:45;16.40;99.90
37050;DHT22;22958;51.232;6.826;2023-10-08T05:07:31;16.40;99.90
37050;DHT22;22958;51.232;6.826;2023-10-08T05:10:26;16.40;99.90
37050;DHT22;22958;51.232;6.826;2023-10-08T05:12:53;16.50;99.90
37050;DHT22;22958;51.232;6.826;2023-10-08T05:15:33;16.40;99.90
37050;DHT22;22958;51.232;6.826;2023-10-08T05:18:03;16.30;99.90
37050;DHT22;22958;51.232;6.826;2023-10-08T05:20:39;16.30;99.90
37050;DHT22;22958;51.232;6.826;2023-10-08T05:23:13;16.30;99.90
37050;DHT22;22958;51.232;6.826;2023-10-08T05:25:48;16.30;99.90
37050;DHT22;22958;51.232;6.826;2023-10-08T05:28:28;16.20;99.90
37050;DHT22;22958;51.232;6.826;2023-10-08T05:30:56;16.20;99.90
37050;DHT22;22958;51.232;6.826;2023-10-08T05:33:47;16.20;99.90
37050;DHT22;22958;51.232;6.826;2023-10-08T05:36:31;16.30;99.90
37050;DHT22;22958;51.232;6.826;2023-10-08T05:39:15;16.20;99.90
37050;DHT22;22958;51.232;6.826;2023-10-08T05:41:53;16.20;99.90
37050;DHT22;22958;51.232;6.826;2023-10-08T05:44:38;16.20;99.90
37050;DHT22;22958;51.232;6.826;2023-10-08T05:47:06;16.20;99.90
37050;DHT22;22958;51.232;6.826;2023-10-08T05:49:38;16.20;99.90
37050;DHT22;22958;51.232;6.826;2023-10-08T05:52:04;16.30;99.90
37050;DHT22;22958;51.232;6.826;2023-10-08T05:54:30;16.30;99.90
37050;DHT22;22958;51.232;6.826;2023-10-08T05:59:42;16.40;99.90
37050;DHT22;22958;51.232;6.826;2023-10-08T06:02:30;16.40;99.90
37050;DHT22;22958;51.232;6.826;2023-10-08T06:05:03;16.40;99.90
37050;DHT22;22958;51.232;6.826;2023-10-08T06:07:47;16.30;99.90
37050;DHT22;22958;51.232;6.826;2023-10-08T06:10:26;16.30;99.90
37050;DHT22;22958;51.232;6.826;2023-10-08T06:13:12;16.40;99.90
37050;DHT22;22958;51.232;6.826;2023-10-08T06:16:09;16.30;99.90
37050;DHT22;22958;51.232;6.826;2023-10-08T06:18:34;16.30;99.90
37050;DHT22;22958;51.232;6.826;2023-10-08T06:21:02;16.40;99.90
37050;DHT22;22958;51.232;6.826;2023-10-08T06:23:35;16.20;99.90
37050;DHT22;22958;51.232;6.826;2023-10-08T06:26:02;16.30;99.90
37050;DHT22;22958;51.232;6.826;2023-10-08T06:28:42;16.30;99.90
37050;DHT22;22958;51.232;6.826;2023-10-08T06:31:07;16.30;99.90
37050;DHT22;22958;51.232;6.826;2023-10-08T06:33:43;16.40;99.90
37050;DHT22;22958;51.232;6.826;2023-10-08T06:36:09;16.50;99.90
37050;DHT22;22958;51.232;6.826;2023-10-08T06:38:44;16.40;99.90
37050;DHT22;22958;51.232;6.826;2023-10-08T06:41:14;16.30;99.90
37050;DHT22;22958;51.232;6.826;2023-10-08T06:43:49;16.30;99.90
37050;DHT22;22958;51.232;6.826;2023-10-08T06:46:16;16.30;99.90
37050;DHT22;22958;51.232;6.826;2023-10-08T06:48:45;16.40;99.90
37050;DHT22;22958;51.232;6.826;2023-10-08T06:51:11;16.40;99.90
37050;DHT22;22958;51.232;6.826;2023-10-08T06:53:43;16.50;99.90
37050;DHT22;22958;51.232;6.826;2023-10-08T06:56:16;16.60;99.90
37050;DHT22;22958;51.232;6.826;2023-10-08T06:58:42;16.60;99.90
37050;DHT22;22958;51.232;6.826;2023-10-08T07:01:17;16.60;99.90
37050;DHT22;22958;51.232;6.826;2023-10-08T07:04:04;16.70;99.90
37050;DHT22;22958;51.232;6.826;2023-10-08T07:06:34;16.70;99.90
37050;DHT22;22958;51.232;6.826;2023-10-08T07:09:03;16.60;99.90
37050;DHT22;22958;51.232;6.826;2023-10-08T07:11:32;16.60;99.90
37050;DHT22;22958;51.232;6.826;2023-10-08T07:14:04;16.60;99.90
37050;DHT22;22958;51.232;6.826;2023-10-08T07:16:31;16.30;99.90
37050;DHT22;22958;51.232;6.826;2023-10-08T07:18:56;16.20;99.90
37050;DHT22;22958;51.232;6.826;2023-10-08T07:21:31;16.20;99.90
37050;DHT22;22958;51.232;6.826;2023-10-08T07:24:11;16.20;99.90
37050;DHT22;22958;51.232;6.826;2023-10-08T07:26:40;16.40;99.90
37050;DHT22;22958;51.232;6.826;2023-10-08T07:29:12;16.40;99.90
37050;DHT22;22958;51.232;6.826;2023-10-08T07:31:38;16.40;99.90
37050;DHT22;22958;51.232;6.826;2023-10-08T07:34:07;16.40;99.90
37050;DHT22;22958;51.232;6.826;2023-10-08T07:36:43;16.50;99.90
37050;DHT22;22958;51.232;6.826;2023-10-08T07:39:09;16.50;99.90
37050;DHT22;22958;51.232;6.826;2023-10-08T07:41:49;16.40;99.90
37050;DHT22;22958;51.232;6.826;2023-10-08T07:44:15;16.30;99.90
37050;DHT22;22958;51.232;6.826;2023-10-08T07:46:40;16.50;99.90
37050;DHT22;22958;51.232;6.826;2023-10-08T07:49:06;16.60;99.90
37050;DHT22;22958;51.232;6.826;2023-10-08T07:51:31;16.70;99.90
37050;DHT22;22958;51.232;6.826;2023-10-08T07:53:57;16.70;99.90
37050;DHT22;22958;51.232;6.826;2023-10-08T07:56:24;16.60;99.90
37050;DHT22;22958;51.232;6.826;2023-10-08T07:58:53;16.60;99.90
37050;DHT22;22958;51.232;6.826;2023-10-08T08:01:23;16.70;99.90
37050;DHT22;22958;51.232;6.826;2023-10-08T08:03:50;16.50;99.90
37050;DHT22;22958;51.232;6.826;2023-10-08T08:06:16;16.50;99.90
37050;DHT22;22958;51.232;6.826;2023-10-08T08:08:42;16.60;99.90
37050;DHT22;22958;51.232;6.826;2023-10-08T08:11:09;16.70;99.90
37050;DHT22;22958;51.232;6.826;2023-10-08T08:13:41;16.70;99.90
37050;DHT22;22958;51.232;6.826;2023-10-08T08:16:08;16.70;99.90
37050;DHT22;22958;51.232;6.826;2023-10-08T08:18:47;16.80;99.90
37050;DHT22;22958;51.232;6.826;2023-10-08T08:21:14;17.00;99.90
37050;DHT22;22958;51.232;6.826;2023-10-08T08:23:46;17.10;99.90
37050;DHT22;22958;51.232;6.826;2023-10-08T08:26:22;17.00;99.90
37050;DHT22;22958;51.232;6.826;2023-10-08T08:28:59;17.00;99.90
37050;DHT22;22958;51.232;6.826;2023-10-08T08:31:28;17.30;99.90
37050;DHT22;22958;51.232;6.826;2023-10-08T08:33:57;17.30;99.90
37050;DHT22;22958;51.232;6.826;2023-10-08T08:36:27;17.30;99.90
37050;DHT22;22958;51.232;6.826;2023-10-08T08:38:52;16.90;99.90
37050;DHT22;22958;51.232;6.826;2023-10-08T08:41:20;17.00;99.90
37050;DHT22;22958;51.232;6.826;2023-10-08T08:43:50;17.30;99.90
37050;DHT22;22958;51.232;6.826;2023-10-08T08:46:26;17.10;99.90
37050;DHT22;22958;51.232;6.826;2023-10-08T08:48:53;17.00;99.90
37050;DHT22;22958;51.232;6.826;2023-10-08T08:51:19;17.10;99.90
37050;DHT22;22958;51.232;6.826;2023-10-08T08:53:47;17.30;99.90
37050;DHT22;22958;51.232;6.826;2023-10-08T08:56:13;17.80;99.90
37050;DHT22;22958;51.232;6.826;2023-10-08T08:58:39;17.60;99.90
37050;DHT22;22958;51.232;6.826;2023-10-08T09:01:07;17.90;99.90
37050;DHT22;22958;51.232;6.826;2023-10-08T09:03:35;18.20;99.90
37050;DHT22;22958;51.232;6.826;2023-10-08T09:06:02;17.90;99.90
37050;DHT22;22958;51.232;6.826;2023-10-08T09:08:36;17.50;99.90
37050;DHT22;22958;51.232;6.826;2023-10-08T09:11:02;17.50;99.90
37050;DHT22;22958;51.232;6.826;2023-10-08T09:13:31;17.60;99.90
37050;DHT22;22958;51.232;6.826;2023-10-08T09:16:02;17.60;99.90
37050;DHT22;22958;51.232;6.826;2023-10-08T09:18:29;17.60;99.90
37050;DHT22;22958;51.232;6.826;2023-10-08T09:21:10;17.80;99.90
37050;DHT22;22958;51.232;6.826;2023-10-08T09:23:42;18.20;99.90
37050;DHT22;22958;51.232;6.826;2023-10-08T09:26:13;18.60;99.90
37050;DHT22;22958;51.232;6.826;2023-10-08T09:28:44;18.50;99.90
37050;DHT22;22958;51.232;6.826;2023-10-08T09:31:12;18.20;99.90
37050;DHT22;22958;51.232;6.826;2023-10-08T09:33:38;18.00;99.90
37050;DHT22;22958;51.232;6.826;2023-10-08T09:36:04;18.20;99.90
37050;DHT22;22958;51.232;6.826;2023-10-08T09:38:31;18.60;99.90
37050;DHT22;22958;51.232;6.826;2023-10-08T09:40:58;18.70;99.90
37050;DHT22;22958;51.232;6.826;2023-10-08T09:43:24;18.80;99.90
37050;DHT22;22958;51.232;6.826;2023-10-08T09:46:05;18.90;99.90
37050;DHT22;22958;51.232;6.826;2023-10-08T09:48:38;19.50;99.90
37050;DHT22;22958;51.232;6.826;2023-10-08T09:51:10;19.70;99.90
37050;DHT22;22958;51.232;6.826;2023-10-08T09:54:03;20.00;99.90
37050;DHT22;22958;51.232;6.826;2023-10-08T09:56:31;20.10;99.90
37050;DHT22;22958;51.232;6.826;2023-10-08T09:58:58;20.10;99.90
37050;DHT22;22958;51.232;6.826;2023-10-08T10:01:25;19.70;99.90
37050;DHT22;22958;51.232;6.826;2023-10-08T10:03:52;19.80;99.90
37050;DHT22;22958;51.232;6.826;2023-10-08T10:06:18;19.90;99.90
37050;DHT22;22958;51.232;6.826;2023-10-08T10:08:44;19.50;99.90
37050;DHT22;22958;51.232;6.826;2023-10-08T10:11:10;19.70;99.90
37050;DHT22;22958;51.232;6.826;2023-10-08T10:13:50;19.80;99.90
37050;DHT22;22958;51.232;6.826;2023-10-08T10:16:21;19.50;99.90
37050;DHT22;22958;51.232;6.826;2023-10-08T10:18:49;19.70;99.90
37050;DHT22;22958;51.232;6.826;2023-10-08T10:23:45;20.40;99.90
37050;DHT22;22958;51.232;6.826;2023-10-08T10:26:30;20.70;99.90
37050;DHT22;22958;51.232;6.826;2023-10-08T10:31:42;20.40;99.90
37050;DHT22;22958;51.232;6.826;2023-10-08T10:34:10;21.00;99.90
37050;DHT22;22958;51.232;6.826;2023-10-08T10:36:38;21.00;99.90
37050;DHT22;22958;51.232;6.826;2023-10-08T10:39:06;21.40;99.90
37050;DHT22;22958;51.232;6.826;2023-10-08T10:41:44;21.70;99.90
37050;DHT22;22958;51.232;6.826;2023-10-08T10:44:12;21.30;99.90
37050;DHT22;22958;51.232;6.826;2023-10-08T10:46:41;21.30;99.90
37050;DHT22;22958;51.232;6.826;2023-10-08T10:49:08;21.30;99.90
37050;DHT22;22958;51.232;6.826;2023-10-08T10:51:46;21.60;99.90
37050;DHT22;22958;51.232;6.826;2023-10-08T10:54:12;21.80;99.90
37050;DHT22;22958;51.232;6.826;2023-10-08T10:56:46;22.60;99.90
37050;DHT22;22958;51.232;6.826;2023-10-08T10:59:13;22.70;99.90
37050;DHT22;22958;51.232;6.826;2023-10-08T11:01:49;22.90;99.90
37050;DHT22;22958;51.232;6.826;2023-10-08T11:04:21;21.70;99.90
37050;DHT22;22958;51.232;6.826;2023-10-08T11:06:55;21.40;99.90
37050;DHT22;22958;51.232;6.826;2023-10-08T11:09:27;21.30;99.90
37050;DHT22;22958;51.232;6.826;2023-10-08T11:12:06;20.70;99.90
37050;DHT22;22958;51.232;6.826;2023-10-08T11:14:42;20.00;99.90
37050;DHT22;22958;51.232;6.826;2023-10-08T11:17:12;20.20;99.90
37050;DHT22;22958;51.232;6.826;2023-10-08T11:19:39;20.30;99.90
37050;DHT22;22958;51.232;6.826;2023-10-08T11:22:07;20.20;99.90
37050;DHT22;22958;51.232;6.826;2023-10-08T11:24:40;20.10;99.90
37050;DHT22;22958;51.232;6.826;2023-10-08T11:27:08;20.20;99.90
37050;DHT22;22958;51.232;6.826;2023-10-08T11:29:44;20.10;99.90
37050;DHT22;22958;51.232;6.826;2023-10-08T11:32:12;20.20;99.90
37050;DHT22;22958;51.232;6.826;2023-10-08T11:34:39;20.60;99.90
37050;DHT22;22958;51.232;6.826;2023-10-08T11:37:05;20.90;99.90
37050;DHT22;22958;51.232;6.826;2023-10-08T11:39:39;21.20;99.90
37050;DHT22;22958;51.232;6.826;2023-10-08T11:42:11;21.00;99.90
37050;DHT22;22958;51.232;6.826;2023-10-08T11:45:09;21.30;99.90
37050;DHT22;22958;51.232;6.826;2023-10-08T11:47:47;20.90;99.90
37050;DHT22;22958;51.232;6.826;2023-10-08T11:50:15;21.60;99.90
37050;DHT22;22958;51.232;6.826;2023-10-08T11:52:47;22.10;99.90
37050;DHT22;22958;51.232;6.826;2023-10-08T11:55:12;22.20;99.90
37050;DHT22;22958;51.232;6.826;2023-10-08T11:57:50;22.20;99.90
37050;DHT22;22958;51.232;6.826;2023-10-08T12:00:17;21.80;99.90
37050;DHT22;22958;51.232;6.826;2023-10-08T12:02:46;21.50;99.90
37050;DHT22;22958;51.232;6.826;2023-10-08T12:05:13;22.10;99.90
37050;DHT22;22958;51.232;6.826;2023-10-08T12:07:53;21.60;99.90
37050;DHT22;22958;51.232;6.826;2023-10-08T12:10:23;21.70;99.90
37050;DHT22;22958;51.232;6.826;2023-10-08T12:12:50;21.70;99.90
37050;DHT22;22958;51.232;6.826;2023-10-08T12:15:26;21.60;99.90
37050;DHT22;22958;51.232;6.826;2023-10-08T12:18:00;21.60;99.90
37050;DHT22;22958;51.232;6.826;2023-10-08T12:20:41;21.40;99.90
37050;DHT22;22958;51.232;6.826;2023-10-08T12:23:11;21.20;99.90
37050;DHT22;22958;51.232;6.826;2023-10-08T12:25:37;20.90;99.90
37050;DHT22;22958;51.232;6.826;2023-10-08T12:28:03;20.40;99.90
37050;DHT22;22958;51.232;6.826;2023-10-08T12:30:30;20.70;99.90
37050;DHT22;22958;51.232;6.826;2023-10-08T12:32:59;20.60;99.90
37050;DHT22;22958;51.232;6.826;2023-10-08T12:35:26;20.70;99.90
37050;DHT22;22958;51.232;6.826;2023-10-08T12:37:52;20.80;99.90
37050;DHT22;22958;51.232;6.826;2023-10-08T12:40:17;20.70;99.90
37050;DHT22;22958;51.232;6.826;2023-10-08T12:42:52;20.50;99.90
37050;DHT22;22958;51.232;6.826;2023-10-08T12:45:18;20.60;99.90
37050;DHT22;22958;51.232;6.826;2023-10-08T12:47:48;20.40;99.90
37050;DHT22;22958;51.232;6.826;2023-10-08T12:50:16;19.90;99.90
37050;DHT22;22958;51.232;6.826;2023-10-08T12:52:43;19.80;99.90
37050;DHT22;22958;51.232;6.826;2023-10-08T12:55:19;20.00;99.90
37050;DHT22;22958;51.232;6.826;2023-10-08T12:57:52;20.00;99.90
37050;DHT22;22958;51.232;6.826;2023-10-08T13:00:24;20.40;99.90
37050;DHT22;22958;51.232;6.826;2023-10-08T13:02:51;20.60;99.90
37050;DHT22;22958;51.232;6.826;2023-10-08T13:05:21;20.50;99.90
37050;DHT22;22958;51.232;6.826;2023-10-08T13:07:54;20.70;99.90
37050;DHT22;22958;51.232;6.826;2023-10-08T13:10:19;20.50;99.90
37050;DHT22;22958;51.232;6.826;2023-10-08T13:12:47;20.60;99.90
37050;DHT22;22958;51.232;6.826;2023-10-08T13:15:13;20.80;99.90
37050;DHT22;22958;51.232;6.826;2023-10-08T13:17:38;21.00;99.90
37050;DHT22;22958;51.232;6.826;2023-10-08T13:20:09;21.10;99.90
37050;DHT22;22958;51.232;6.826;2023-10-08T13:22:37;21.30;99.90
37050;DHT22;22958;51.232;6.826;2023-10-08T13:25:03;21.10;99.90
37050;DHT22;22958;51.232;6.826;2023-10-08T13:27:30;21.10;99.90
37050;DHT22;22958;51.232;6.826;2023-10-08T13:29:56;21.10;99.90
37050;DHT22;22958;51.232;6.826;2023-10-08T13:32:21;21.10;99.90
37050;DHT22;22958;51.232;6.826;2023-10-08T13:34:47;21.00;99.90
37050;DHT22;22958;51.232;6.826;2023-10-08T13:37:12;20.80;99.90
37050;DHT22;22958;51.232;6.826;2023-10-08T13:39:41;21.20;99.90
37050;DHT22;22958;51.232;6.826;2023-10-08T13:42:06;21.30;99.90
37050;DHT22;22958;51.232;6.826;2023-10-08T13:44:32;21.40;99.90
37050;DHT22;22958;51.232;6.826;2023-10-08T13:46:58;21.50;99.90
37050;DHT22;22958;51.232;6.826;2023-10-08T13:49:25;21.50;99.90
37050;DHT22;22958;51.232;6.826;2023-10-08T13:51:52;21.70;99.90
37050;DHT22;22958;51.232;6.826;2023-10-08T13:54:21;21.40;99.90
37050;DHT22;22958;51.232;6.826;2023-10-08T13:56:47;21.70;99.90
37050;DHT22;22958;51.232;6.826;2023-10-08T13:59:13;22.30;99.90
37050;DHT22;22958;51.232;6.826;2023-10-08T14:01:41;22.90;99.90
37050;DHT22;22958;51.232;6.826;2023-10-08T14:04:09;22.90;99.90
37050;DHT22;22958;51.232;6.826;2023-10-08T14:06:38;23.60;99.90
37050;DHT22;22958;51.232;6.826;2023-10-08T14:09:08;23.60;99.90
37050;DHT22;22958;51.232;6.826;2023-10-08T14:11:37;24.00;99.90
37050;DHT22;22958;51.232;6.826;2023-10-08T14:14:03;24.40;99.90
37050;DHT22;22958;51.232;6.826;2023-10-08T14:16:36;24.20;99.90
37050;DHT22;22958;51.232;6.826;2023-10-08T14:19:02;23.70;99.90
37050;DHT22;22958;51.232;6.826;2023-10-08T14:21:30;23.70;99.90
37050;DHT22;22958;51.232;6.826;2023-10-08T14:23:56;23.80;99.90
37050;DHT22;22958;51.232;6.826;2023-10-08T14:26:28;24.00;99.90
37050;DHT22;22958;51.232;6.826;2023-10-08T14:29:00;23.80;99.90
37050;DHT22;22958;51.232;6.826;2023-10-08T14:31:33;23.10;99.90
37050;DHT22;22958;51.232;6.826;2023-10-08T14:33:59;23.10;99.90
37050;DHT22;22958;51.232;6.826;2023-10-08T14:36:31;24.30;99.90
37050;DHT22;22958;51.232;6.826;2023-10-08T14:39:16;25.40;99.90
37050;DHT22;22958;51.232;6.826;2023-10-08T14:42:00;25.70;99.90
37050;DHT22;22958;51.232;6.826;2023-10-08T14:44:44;26.80;99.90
37050;DHT22;22958;51.232;6.826;2023-10-08T14:47:12;25.30;99.90
37050;DHT22;22958;51.232;6.826;2023-10-08T14:49:37;25.30;99.90
37050;DHT22;22958;51.232;6.826;2023-10-08T14:52:03;25.00;99.90
37050;DHT22;22958;51.232;6.826;2023-10-08T14:54:30;24.60;99.90
37050;DHT22;22958;51.232;6.826;2023-10-08T14:56:56;23.00;99.90
37050;DHT22;22958;51.232;6.826;2023-10-08T14:59:23;22.90;99.90
37050;DHT22;22958;51.232;6.826;2023-10-08T15:01:49;23.00;99.90
37050;DHT22;22958;51.232;6.826;2023-10-08T15:04:15;22.90;99.90
37050;DHT22;22958;51.232;6.826;2023-10-08T15:06:42;23.50;99.90
37050;DHT22;22958;51.232;6.826;2023-10-08T15:09:08;23.50;99.90
37050;DHT22;22958;51.232;6.826;2023-10-08T15:11:34;23.60;99.90
37050;DHT22;22958;51.232;6.826;2023-10-08T15:14:02;23.60;99.90
37050;DHT22;22958;51.232;6.826;2023-10-08T15:16:37;23.60;99.90
37050;DHT22;22958;51.232;6.826;2023-10-08T15:19:04;24.20;99.90
37050;DHT22;22958;51.232;6.826;2023-10-08T15:21:30;24.00;99.90
37050;DHT22;22958;51.232;6.826;2023-10-08T15:23:59;23.60;99.90
37050;DHT22;22958;51.232;6.826;2023-10-08T15:26:33;23.70;99.90
37050;DHT22;22958;51.232;6.826;2023-10-08T15:28:59;23.60;99.90
37050;DHT22;22958;51.232;6.826;2023-10-08T15:31:24;23.80;99.90
37050;DHT22;22958;51.232;6.826;2023-10-08T15:33:50;24.10;99.90
37050;DHT22;22958;51.232;6.826;2023-10-08T15:36:16;23.90;99.90
37050;DHT22;22958;51.232;6.826;2023-10-08T15:38:42;23.30;99.90
37050;DHT22;22958;51.232;6.826;2023-10-08T15:41:07;22.80;99.90
37050;DHT22;22958;51.232;6.826;2023-10-08T15:43:33;22.20;99.90
37050;DHT22;22958;51.232;6.826;2023-10-08T15:45:59;20.90;99.90
37050;DHT22;22958;51.232;6.826;2023-10-08T15:48:25;20.70;99.90
37050;DHT22;22958;51.232;6.826;2023-10-08T15:50:51;20.60;99.90
37050;DHT22;22958;51.232;6.826;2023-10-08T15:53:17;20.60;99.90
37050;DHT22;22958;51.232;6.826;2023-10-08T15:55:42;20.20;99.90
37050;DHT22;22958;51.232;6.826;2023-10-08T15:58:08;20.30;99.90